METAR Formatted Surface Weather Observation
Issued by NWS Wakefield, VA

Home | Current Version | Previous Version | Text Only | Print | Product List | Glossary On
Versions: 1 2 3
000
SAUS41 KAKQ 040758
MTRWAL
METAR KWAL 040754Z AUTO 25015G23KT 10SM OVC006 08/07 A2988 RMK AO2
RAE40 SLP114 P0002 T00780072 TSNO



USA.gov is the U.S. government's official web portal to all federal, state and local government web resources and services.